Airfield :
LOGIN :

Register | Disclaimer

   EN    FR    IT 

 










Legend :    VFR   Marginal VFR   IFR   Intensive IFR   Very Intensive IFR
Visi :
Ceiling :
>= 8 km
>= 3000ft
5 to 8 km
1000 to 3000 ft
1500m to 5 km
500 to 1000 ft
800 to 1500m
200 to 500 ft
< 800m
< 200 ft
Symbols :   Thunderstorms  Fog  Heavy snow  Heavy precipitations  Wind > 20 kt
SIGMETs :     Misc.  Thunderstorms  Icing  Turbulence  Mountain Waves  Volcanic Ashes






- Airport Elevation : 1276 ft
- IATA code : STR


EDDS - Stuttgart

CURRENT METAR :
  • 020150Z 26003KT CAVOK 00/M03 Q1030

EXPIRED METARs :
  • 020120Z 26004KT CAVOK M01/M04 Q1030
  • 020050Z 27004KT CAVOK M01/M04 Q1030
  • 020020Z 31003KT 290V360 CAVOK 01/M04 Q1030
  • 012350Z 27004KT CAVOK 00/M03 Q1030
  • 012320Z 29003KT CAVOK 01/M03 Q1030

TAF TAF EDDS
Valid from the 02 at 00:00 until the 03 at 00:00 UTC


012300Z 0200/0224 VRB03KT CAVOK
PROB30
TEMPO 0204/0209 1000 BCFG



MET'MAP, your aeronautical weather chart ! - Copyright ORBIFLY December 2007 - Disclaimer

ORBIFLY MET'MAP TEAM :

Programming & Development : Alexandra Zaïnal
Concept & original design : Baudouin d'Aumeries
Assistance for programming : Marc-Olivier Méhu
Technical & hardware support : Manuel Goepfert

Contact : metmap@orbifly.com




SOURCES & CREDITS :

   NOAA